createdAt,value
2017-12-31T00:01:01.395Z,0
2017-12-31T00:02:11.103Z,0
2017-12-31T00:03:21.071Z,0
2017-12-31T00:04:31.022Z,0
2017-12-31T00:05:40.981Z,0
2017-12-31T00:06:50.666Z,0
2017-12-31T00:08:00.368Z,0
2017-12-31T00:09:10.327Z,0
2017-12-31T00:10:20.030Z,0
2017-12-31T00:11:29.976Z,0
2017-12-31T00:12:39.948Z,0
2017-12-31T00:13:49.924Z,0
2017-12-31T00:14:59.874Z,0
2017-12-31T00:16:09.578Z,0
2017-12-31T00:17:19.533Z,0
2017-12-31T00:18:29.492Z,0
2017-12-31T00:19:39.454Z,0
2017-12-31T00:20:49.402Z,0
2017-12-31T00:21:59.353Z,0
2017-12-31T00:23:09.072Z,0
2017-12-31T00:24:18.544Z,0
2017-12-31T00:25:28.562Z,0
2017-12-31T00:26:38.280Z,0
2017-12-31T00:27:47.997Z,0
2017-12-31T00:28:57.723Z,0
2017-12-31T00:30:07.683Z,0
2017-12-31T00:31:17.642Z,0
2017-12-31T00:32:27.584Z,0
2017-12-31T00:33:37.541Z,0
2017-12-31T00:34:47.248Z,0
2017-12-31T00:35:57.205Z,0
2017-12-31T00:37:07.178Z,0
2017-12-31T00:38:17.143Z,0
2017-12-31T00:39:27.083Z,0
2017-12-31T00:40:37.059Z,0
2017-12-31T00:41:46.758Z,0
2017-12-31T00:42:56.728Z,0
2017-12-31T00:44:06.437Z,0
2017-12-31T00:45:15.898Z,0
2017-12-31T00:46:25.848Z,0
2017-12-31T00:47:35.837Z,0
2017-12-31T00:48:45.786Z,0
2017-12-31T00:49:55.734Z,0
2017-12-31T00:51:05.434Z,0
2017-12-31T00:52:15.401Z,0
2017-12-31T00:53:25.352Z,0
2017-12-31T00:54:35.317Z,0
2017-12-31T00:55:45.277Z,0
2017-12-31T00:56:55.269Z,0
2017-12-31T00:58:05.245Z,0
2017-12-31T00:59:15.204Z,0
2017-12-31T01:00:25.150Z,0
2017-12-31T01:01:35.148Z,0
2017-12-31T01:02:44.854Z,0
2017-12-31T01:03:54.821Z,0
2017-12-31T01:05:04.814Z,0
2017-12-31T01:06:14.768Z,0
2017-12-31T01:07:24.728Z,0
2017-12-31T01:08:34.689Z,0
2017-12-31T01:09:44.383Z,0
2017-12-31T01:10:53.831Z,0
2017-12-31T01:12:03.786Z,0
2017-12-31T01:13:13.478Z,0
2017-12-31T01:14:23.189Z,0
2017-12-31T01:15:32.942Z,0
2017-12-31T01:16:42.403Z,0
2017-12-31T01:17:52.348Z,0
2017-12-31T01:19:02.290Z,0
2017-12-31T01:20:12.267Z,0
2017-12-31T01:21:22.212Z,0
2017-12-31T01:22:32.186Z,0
2017-12-31T01:23:42.186Z,0
2017-12-31T01:24:51.881Z,0
2017-12-31T01:26:01.843Z,0
2017-12-31T01:27:11.545Z,0
2017-12-31T01:28:21.233Z,0
2017-12-31T01:29:30.918Z,0
2017-12-31T01:30:40.605Z,0
2017-12-31T01:31:50.545Z,0
2017-12-31T01:33:00.255Z,0
2017-12-31T01:34:10.242Z,0
2017-12-31T01:35:19.956Z,0
2017-12-31T01:36:29.916Z,0
2017-12-31T01:37:39.876Z,0
2017-12-31T01:38:49.829Z,0
2017-12-31T01:39:59.527Z,0
2017-12-31T01:41:09.491Z,0
2017-12-31T01:42:19.178Z,0
2017-12-31T01:43:29.131Z,0
2017-12-31T01:44:39.086Z,0
2017-12-31T01:45:48.790Z,0
2017-12-31T01:46:58.477Z,0
2017-12-31T01:48:08.182Z,0
2017-12-31T01:49:18.139Z,0
2017-12-31T01:50:27.836Z,0
2017-12-31T01:51:37.793Z,0
2017-12-31T01:52:47.744Z,0
2017-12-31T01:53:57.434Z,0
2017-12-31T01:55:07.382Z,0
2017-12-31T01:56:17.067Z,0
2017-12-31T01:57:27.004Z,0
2017-12-31T01:58:36.431Z,0
2017-12-31T01:59:46.389Z,0
2017-12-31T02:00:56.345Z,0
2017-12-31T02:02:06.310Z,0
2017-12-31T02:03:16.004Z,0
2017-12-31T02:04:25.956Z,0
2017-12-31T02:05:35.902Z,0
2017-12-31T02:06:45.591Z,0
2017-12-31T02:07:55.537Z,0
2017-12-31T02:09:05.485Z,0
2017-12-31T02:10:14.917Z,0
2017-12-31T02:11:24.880Z,0
2017-12-31T02:12:34.564Z,0
2017-12-31T02:13:44.508Z,0
2017-12-31T02:14:54.204Z,0
2017-12-31T02:16:04.172Z,0
2017-12-31T02:17:13.927Z,0
2017-12-31T02:18:23.614Z,0
2017-12-31T02:19:33.605Z,0
2017-12-31T02:20:43.550Z,0
2017-12-31T02:21:53.505Z,0
2017-12-31T02:23:03.196Z,0
2017-12-31T02:24:12.935Z,0
2017-12-31T02:25:22.928Z,0
2017-12-31T02:26:32.891Z,0
2017-12-31T02:27:42.846Z,0
2017-12-31T02:28:52.795Z,0
2017-12-31T02:30:02.543Z,0
2017-12-31T02:31:12.496Z,0
2017-12-31T02:32:22.452Z,0
2017-12-31T02:33:31.900Z,0
2017-12-31T02:34:41.853Z,0
2017-12-31T02:35:51.803Z,0
2017-12-31T02:37:01.546Z,0
2017-12-31T02:38:11.508Z,0
2017-12-31T02:39:21.447Z,0
2017-12-31T02:40:31.399Z,0
2017-12-31T02:41:41.358Z,0
2017-12-31T02:42:51.332Z,0
2017-12-31T02:44:01.018Z,0
2017-12-31T02:45:10.968Z,0
2017-12-31T02:46:20.672Z,0
2017-12-31T02:47:30.610Z,0
2017-12-31T02:48:40.324Z,0
2017-12-31T02:49:50.039Z,0
2017-12-31T02:50:59.733Z,0
2017-12-31T02:52:09.704Z,0
2017-12-31T02:53:19.401Z,0
2017-12-31T02:54:29.144Z,0
2017-12-31T02:55:38.824Z,0
2017-12-31T02:56:48.763Z,0
2017-12-31T02:57:58.706Z,0
2017-12-31T02:59:08.654Z,0
2017-12-31T03:00:18.596Z,0
2017-12-31T03:01:28.046Z,0
2017-12-31T03:02:38.000Z,0
2017-12-31T03:03:47.698Z,0
2017-12-31T03:04:57.642Z,0
2017-12-31T03:06:07.063Z,0
2017-12-31T03:07:17.014Z,0
2017-12-31T03:08:26.961Z,0
2017-12-31T03:09:36.896Z,0
2017-12-31T03:10:46.839Z,0
2017-12-31T03:11:56.810Z,0
2017-12-31T03:13:06.494Z,0
2017-12-31T03:14:16.453Z,0
2017-12-31T03:15:26.140Z,0
2017-12-31T03:16:35.830Z,0
2017-12-31T03:17:45.785Z,0
2017-12-31T03:18:55.481Z,0
2017-12-31T03:20:05.435Z,0
2017-12-31T03:21:15.377Z,0
2017-12-31T03:22:25.320Z,0
2017-12-31T03:23:35.007Z,0
2017-12-31T03:24:44.451Z,0
2017-12-31T03:25:53.896Z,0
2017-12-31T03:27:03.838Z,0
2017-12-31T03:28:13.778Z,0
2017-12-31T03:29:23.723Z,0
2017-12-31T03:30:33.678Z,0
2017-12-31T03:31:43.396Z,0
2017-12-31T03:32:53.081Z,0
2017-12-31T03:34:03.019Z,0
2017-12-31T03:35:12.706Z,0
2017-12-31T03:36:22.302Z,0
2017-12-31T03:37:32.247Z,0
2017-12-31T03:38:42.195Z,0
2017-12-31T03:39:51.901Z,0
2017-12-31T03:41:01.598Z,0
2017-12-31T03:42:11.547Z,0
2017-12-31T03:43:21.488Z,0
2017-12-31T03:44:31.427Z,0
2017-12-31T03:45:41.118Z,0
2017-12-31T03:46:50.540Z,0
2017-12-31T03:48:00.529Z,0
2017-12-31T03:49:10.479Z,0
2017-12-31T03:50:20.174Z,0
2017-12-31T03:51:29.858Z,0
2017-12-31T03:52:39.809Z,0
2017-12-31T03:53:49.759Z,0
2017-12-31T03:54:59.458Z,0
2017-12-31T03:56:09.397Z,0
2017-12-31T03:57:19.345Z,0
2017-12-31T03:58:29.288Z,0
2017-12-31T03:59:38.978Z,0
2017-12-31T04:00:48.926Z,0
2017-12-31T04:01:58.618Z,0
2017-12-31T04:03:08.305Z,0
2017-12-31T04:04:18.246Z,0
2017-12-31T04:05:27.936Z,0
2017-12-31T04:06:37.646Z,0
2017-12-31T04:07:47.588Z,0
2017-12-31T04:08:57.270Z,0
2017-12-31T04:10:06.699Z,0
2017-12-31T04:11:16.637Z,0
2017-12-31T04:12:26.582Z,0
2017-12-31T04:13:36.532Z,0
2017-12-31T04:14:46.520Z,0
2017-12-31T04:15:56.459Z,0
2017-12-31T04:17:06.158Z,0
2017-12-31T04:18:16.100Z,0
2017-12-31T04:19:25.537Z,0
2017-12-31T04:20:35.230Z,0
2017-12-31T04:21:45.173Z,0
2017-12-31T04:22:55.118Z,0
2017-12-31T04:24:05.073Z,0
2017-12-31T04:25:14.778Z,0
2017-12-31T04:26:24.725Z,0
2017-12-31T04:27:34.161Z,0
2017-12-31T04:28:43.852Z,0
2017-12-31T04:29:53.789Z,0
2017-12-31T04:31:03.477Z,0
2017-12-31T04:32:13.422Z,0
2017-12-31T04:33:23.376Z,0
2017-12-31T04:34:33.053Z,0
2017-12-31T04:35:42.226Z,0
2017-12-31T04:36:52.182Z,0
2017-12-31T04:38:02.129Z,0
2017-12-31T04:39:12.078Z,0
2017-12-31T04:40:22.017Z,0
2017-12-31T04:41:31.458Z,0
2017-12-31T04:42:41.411Z,0
2017-12-31T04:43:51.355Z,0
2017-12-31T04:45:01.041Z,0
2017-12-31T04:46:10.968Z,0
2017-12-31T04:47:20.667Z,0
2017-12-31T04:48:30.360Z,0
2017-12-31T04:49:40.310Z,0
2017-12-31T04:50:50.254Z,0
2017-12-31T04:52:00.195Z,0
2017-12-31T04:53:09.886Z,0
2017-12-31T04:54:19.630Z,0
2017-12-31T04:55:29.566Z,0
2017-12-31T04:56:39.508Z,0
2017-12-31T04:57:49.445Z,0
2017-12-31T04:58:58.879Z,0
2017-12-31T05:00:08.834Z,0
2017-12-31T05:01:18.830Z,0
2017-12-31T05:02:28.768Z,0
2017-12-31T05:03:38.722Z,0
2017-12-31T05:04:48.677Z,0
2017-12-31T05:05:58.610Z,0
2017-12-31T05:07:08.035Z,0
2017-12-31T05:08:17.973Z,0
2017-12-31T05:09:27.664Z,0
2017-12-31T05:10:37.615Z,0
2017-12-31T05:11:47.570Z,0
2017-12-31T05:12:57.505Z,0
2017-12-31T05:14:07.455Z,0
2017-12-31T05:15:17.391Z,0
2017-12-31T05:16:27.330Z,0
2017-12-31T05:17:37.030Z,0
2017-12-31T05:18:46.704Z,0
2017-12-31T05:19:56.646Z,0
2017-12-31T05:21:06.341Z,0
2017-12-31T05:22:16.277Z,0
2017-12-31T05:23:26.226Z,0
2017-12-31T05:24:36.168Z,0
2017-12-31T05:25:46.116Z,0
2017-12-31T05:26:56.070Z,0
2017-12-31T05:28:06.020Z,0
2017-12-31T05:29:15.963Z,0
2017-12-31T05:30:25.658Z,0
2017-12-31T05:31:35.596Z,0
2017-12-31T05:32:45.536Z,0
2017-12-31T05:33:55.470Z,0
2017-12-31T05:35:04.651Z,0
2017-12-31T05:36:14.607Z,0
2017-12-31T05:37:24.060Z,0
2017-12-31T05:38:34.005Z,0
2017-12-31T05:39:43.952Z,0
2017-12-31T05:40:53.638Z,0
2017-12-31T05:42:03.583Z,0
2017-12-31T05:43:13.530Z,0
2017-12-31T05:44:23.487Z,0
2017-12-31T05:45:33.436Z,0
2017-12-31T05:46:43.377Z,0
2017-12-31T05:47:53.318Z,0
2017-12-31T05:49:03.008Z,0
2017-12-31T05:50:13.013Z,0
2017-12-31T05:51:22.959Z,0
2017-12-31T05:52:32.918Z,0
2017-12-31T05:53:42.851Z,0
2017-12-31T05:54:52.793Z,0
2017-12-31T05:56:02.476Z,0
2017-12-31T05:57:12.428Z,0
2017-12-31T05:58:22.370Z,0
2017-12-31T05:59:32.055Z,0
2017-12-31T06:00:41.986Z,0
2017-12-31T06:01:51.926Z,0
2017-12-31T06:03:02.103Z,0
2017-12-31T06:04:12.055Z,0
2017-12-31T06:05:21.735Z,0
2017-12-31T06:06:31.227Z,0
2017-12-31T06:07:41.163Z,0
2017-12-31T06:08:50.855Z,0
2017-12-31T06:10:00.801Z,0
2017-12-31T06:11:10.747Z,0
2017-12-31T06:12:20.694Z,0
2017-12-31T06:13:30.386Z,0
2017-12-31T06:14:40.336Z,0
2017-12-31T06:15:50.033Z,0
2017-12-31T06:16:59.727Z,0
2017-12-31T06:18:09.698Z,0
2017-12-31T06:19:19.639Z,0
2017-12-31T06:20:29.598Z,0
2017-12-31T06:21:39.535Z,0
2017-12-31T06:22:49.320Z,0
2017-12-31T06:23:59.022Z,0
2017-12-31T06:25:08.975Z,0
2017-12-31T06:26:18.925Z,0
2017-12-31T06:27:28.860Z,0
2017-12-31T06:28:38.804Z,0
2017-12-31T06:29:48.757Z,0
2017-12-31T06:30:58.698Z,0
2017-12-31T06:32:08.642Z,0
2017-12-31T06:33:18.591Z,0
2017-12-31T06:34:28.532Z,0
2017-12-31T06:35:38.212Z,0
2017-12-31T06:36:47.896Z,0
2017-12-31T06:37:57.842Z,0
2017-12-31T06:39:07.542Z,0
2017-12-31T06:40:17.474Z,0
2017-12-31T06:41:27.408Z,0
2017-12-31T06:42:37.105Z,0
2017-12-31T06:43:47.075Z,0
2017-12-31T06:44:57.272Z,0
2017-12-31T06:46:07.233Z,0
2017-12-31T06:47:16.927Z,0
2017-12-31T06:48:26.866Z,0
2017-12-31T06:49:36.563Z,0
2017-12-31T06:50:46.500Z,0
2017-12-31T06:51:56.190Z,0
2017-12-31T06:53:06.133Z,0
2017-12-31T06:54:15.564Z,0
2017-12-31T06:55:25.506Z,0
2017-12-31T06:56:35.448Z,0
2017-12-31T06:57:45.142Z,0
2017-12-31T06:58:54.832Z,0
2017-12-31T07:00:04.805Z,0
2017-12-31T07:01:14.752Z,0
2017-12-31T07:02:24.706Z,0
2017-12-31T07:03:34.656Z,0
2017-12-31T07:04:44.642Z,0
2017-12-31T07:05:54.332Z,0
2017-12-31T07:07:04.031Z,5
2017-12-31T07:08:13.998Z,5
2017-12-31T07:09:23.939Z,5
2017-12-31T07:10:33.874Z,5
2017-12-31T07:11:43.815Z,5
2017-12-31T07:12:53.758Z,5
2017-12-31T07:14:03.197Z,5
2017-12-31T07:15:12.897Z,5
2017-12-31T07:16:22.602Z,5
2017-12-31T07:17:32.545Z,10
2017-12-31T07:18:42.496Z,10
2017-12-31T07:19:52.250Z,10
2017-12-31T07:21:01.988Z,10
2017-12-31T07:22:11.931Z,10
2017-12-31T07:23:21.884Z,10
2017-12-31T07:24:31.569Z,15
2017-12-31T07:25:41.519Z,15
2017-12-31T07:26:51.200Z,15
2017-12-31T07:28:00.891Z,20
2017-12-31T07:29:10.852Z,20
2017-12-31T07:30:20.793Z,20
2017-12-31T07:31:30.738Z,20
2017-12-31T07:32:40.664Z,25
2017-12-31T07:33:50.604Z,25
2017-12-31T07:35:00.307Z,25
2017-12-31T07:36:10.253Z,25
2017-12-31T07:37:20.202Z,25
2017-12-31T07:38:30.150Z,20
2017-12-31T07:39:40.103Z,20
2017-12-31T07:40:50.059Z,20
2017-12-31T07:42:00.010Z,20
2017-12-31T07:43:09.971Z,20
2017-12-31T07:44:19.668Z,25
2017-12-31T07:45:29.351Z,30
2017-12-31T07:46:39.306Z,30
2017-12-31T07:47:49.262Z,35
2017-12-31T07:48:59.214Z,35
2017-12-31T07:50:09.162Z,40
2017-12-31T07:51:19.092Z,40
2017-12-31T07:52:29.045Z,45
2017-12-31T07:53:38.729Z,45
2017-12-31T07:54:48.422Z,50
2017-12-31T07:55:58.360Z,50
2017-12-31T07:57:08.310Z,45
2017-12-31T07:58:18.269Z,45
2017-12-31T07:59:27.706Z,40
2017-12-31T08:00:37.130Z,50
2017-12-31T08:01:47.078Z,60
2017-12-31T08:02:56.769Z,65
2017-12-31T08:04:06.733Z,65
2017-12-31T08:05:16.429Z,65
2017-12-31T08:06:26.367Z,70
2017-12-31T08:07:36.340Z,75
2017-12-31T08:08:46.291Z,80
2017-12-31T08:09:55.978Z,90
2017-12-31T08:11:05.918Z,95
2017-12-31T08:12:15.876Z,95
2017-12-31T08:13:25.636Z,90
2017-12-31T08:14:35.323Z,90
2017-12-31T08:15:45.010Z,90
2017-12-31T08:16:54.973Z,90
2017-12-31T08:18:04.934Z,90
2017-12-31T08:19:14.624Z,90
2017-12-31T08:20:24.565Z,95
2017-12-31T08:21:34.512Z,95
2017-12-31T08:22:44.454Z,100
2017-12-31T08:23:53.911Z,100
2017-12-31T08:25:03.872Z,100
2017-12-31T08:26:13.563Z,95
2017-12-31T08:27:23.508Z,90
2017-12-31T08:28:33.456Z,90
2017-12-31T08:29:43.394Z,90
2017-12-31T08:30:53.348Z,95
2017-12-31T08:32:03.303Z,100
2017-12-31T08:33:12.984Z,105
2017-12-31T08:34:22.932Z,105
2017-12-31T08:35:32.625Z,110
2017-12-31T08:36:42.312Z,120
2017-12-31T08:37:52.259Z,135
2017-12-31T08:39:01.960Z,140
2017-12-31T08:40:11.906Z,140
2017-12-31T08:41:21.875Z,130
2017-12-31T08:42:31.840Z,125
2017-12-31T08:43:41.520Z,125
2017-12-31T08:44:51.206Z,125
2017-12-31T08:46:01.167Z,130
2017-12-31T08:47:11.116Z,130
2017-12-31T08:48:20.810Z,130
2017-12-31T08:49:30.503Z,130
2017-12-31T08:50:40.200Z,130
2017-12-31T08:51:50.146Z,130
2017-12-31T08:53:00.087Z,130
2017-12-31T08:54:10.036Z,130
2017-12-31T08:55:19.982Z,125
2017-12-31T08:56:29.671Z,125
2017-12-31T08:57:39.616Z,125
2017-12-31T08:58:49.562Z,115
2017-12-31T08:59:59.271Z,110
2017-12-31T09:01:08.956Z,105
2017-12-31T09:02:18.923Z,100
2017-12-31T09:03:28.870Z,95
2017-12-31T09:04:38.557Z,95
2017-12-31T09:05:48.531Z,100
2017-12-31T09:06:58.480Z,100
2017-12-31T09:08:08.425Z,105
2017-12-31T09:09:18.384Z,105
2017-12-31T09:10:28.332Z,105
2017-12-31T09:11:38.046Z,115
2017-12-31T09:12:47.987Z,115
2017-12-31T09:13:57.717Z,115
2017-12-31T09:15:07.672Z,115
2017-12-31T09:16:17.631Z,115
2017-12-31T09:17:27.575Z,120
2017-12-31T09:18:37.531Z,125
2017-12-31T09:19:47.237Z,130
2017-12-31T09:20:56.663Z,130
2017-12-31T09:22:06.623Z,125
2017-12-31T09:23:16.333Z,125
2017-12-31T09:24:25.798Z,110
2017-12-31T09:25:35.743Z,85
2017-12-31T09:26:45.686Z,85
2017-12-31T09:27:55.370Z,85
2017-12-31T09:29:05.057Z,85
2017-12-31T09:30:14.739Z,80
2017-12-31T09:31:24.682Z,75
2017-12-31T09:32:34.706Z,75
2017-12-31T09:33:44.669Z,85
2017-12-31T09:34:54.636Z,95
2017-12-31T09:36:04.326Z,95
2017-12-31T09:37:14.266Z,95
2017-12-31T09:38:24.239Z,95
2017-12-31T09:39:34.193Z,100
2017-12-31T09:40:44.242Z,85
2017-12-31T09:41:54.242Z,85
2017-12-31T09:43:03.930Z,95
2017-12-31T09:44:13.622Z,105
2017-12-31T09:45:23.566Z,110
2017-12-31T09:46:33.258Z,100
2017-12-31T09:47:42.971Z,100
2017-12-31T09:48:52.672Z,95
2017-12-31T09:50:02.629Z,95
2017-12-31T09:51:12.336Z,100
2017-12-31T09:52:22.044Z,90
2017-12-31T09:53:31.742Z,80
2017-12-31T09:54:41.445Z,85
2017-12-31T09:55:51.137Z,100
2017-12-31T09:57:01.080Z,100
2017-12-31T09:58:10.780Z,90
2017-12-31T09:59:20.724Z,100
2017-12-31T10:00:30.676Z,110
2017-12-31T10:01:40.380Z,115
2017-12-31T10:02:50.320Z,115
2017-12-31T10:04:00.022Z,110
2017-12-31T10:05:09.982Z,115
2017-12-31T10:06:19.975Z,100
2017-12-31T10:07:29.929Z,85
2017-12-31T10:08:39.885Z,100
2017-12-31T10:09:49.608Z,95
2017-12-31T10:10:59.579Z,90
2017-12-31T10:12:09.279Z,95
2017-12-31T10:13:18.969Z,95
2017-12-31T10:14:28.934Z,105
2017-12-31T10:15:38.617Z,115
2017-12-31T10:16:48.063Z,110
2017-12-31T10:17:58.014Z,110
2017-12-31T10:19:07.958Z,90
2017-12-31T10:20:17.934Z,85
2017-12-31T10:21:27.622Z,90
2017-12-31T10:22:37.337Z,90
2017-12-31T10:23:47.302Z,85
2017-12-31T10:24:57.263Z,90
2017-12-31T10:26:07.241Z,85
2017-12-31T10:27:16.931Z,80
2017-12-31T10:28:26.885Z,80
2017-12-31T10:29:36.848Z,80
2017-12-31T10:30:46.783Z,70
2017-12-31T10:31:56.741Z,70
2017-12-31T10:33:06.687Z,70
2017-12-31T10:34:16.376Z,70
2017-12-31T10:35:26.077Z,75
2017-12-31T10:36:36.029Z,80
2017-12-31T10:37:45.973Z,90
2017-12-31T10:38:55.938Z,85
2017-12-31T10:40:05.880Z,90
2017-12-31T10:41:15.836Z,100
2017-12-31T10:42:25.805Z,100
2017-12-31T10:43:35.753Z,105
2017-12-31T10:44:45.753Z,110
2017-12-31T10:45:55.702Z,95
2017-12-31T10:47:05.672Z,85
2017-12-31T10:48:15.622Z,90
2017-12-31T10:49:25.334Z,85
2017-12-31T10:50:35.282Z,90
2017-12-31T10:51:44.725Z,90
2017-12-31T10:52:54.691Z,75
2017-12-31T10:54:04.630Z,70
2017-12-31T10:55:14.069Z,75
2017-12-31T10:56:23.501Z,80
2017-12-31T10:57:33.480Z,85
2017-12-31T10:58:43.448Z,95
2017-12-31T10:59:53.399Z,115
2017-12-31T11:01:03.370Z,135
2017-12-31T11:02:13.331Z,125
2017-12-31T11:03:23.289Z,110
2017-12-31T11:04:33.236Z,100
2017-12-31T11:05:42.926Z,100
2017-12-31T11:06:52.868Z,90
2017-12-31T11:08:02.833Z,100
2017-12-31T11:09:12.896Z,95
2017-12-31T11:10:22.598Z,85
2017-12-31T11:11:32.564Z,90
2017-12-31T11:12:42.264Z,75
2017-12-31T11:13:52.221Z,65
2017-12-31T11:15:01.917Z,55
2017-12-31T11:16:11.626Z,60
2017-12-31T11:17:21.580Z,55
2017-12-31T11:18:31.547Z,55
2017-12-31T11:19:41.491Z,70
2017-12-31T11:20:51.187Z,85
2017-12-31T11:22:01.138Z,95
2017-12-31T11:23:11.100Z,80
2017-12-31T11:24:20.537Z,65
2017-12-31T11:25:30.504Z,75
2017-12-31T11:26:40.454Z,85
2017-12-31T11:27:50.399Z,95
2017-12-31T11:29:00.117Z,90
2017-12-31T11:30:09.816Z,95
2017-12-31T11:31:19.784Z,85
2017-12-31T11:32:29.496Z,95
2017-12-31T11:33:39.539Z,95
2017-12-31T11:34:49.232Z,90
2017-12-31T11:35:58.937Z,80
2017-12-31T11:37:08.887Z,80
2017-12-31T11:38:18.839Z,80
2017-12-31T11:39:28.845Z,90
2017-12-31T11:40:38.594Z,100
2017-12-31T11:41:48.558Z,100
2017-12-31T11:42:58.552Z,85
2017-12-31T11:44:08.525Z,80
2017-12-31T11:45:18.508Z,70
2017-12-31T11:46:28.473Z,70
2017-12-31T11:47:38.436Z,65
2017-12-31T11:48:48.464Z,85
2017-12-31T11:49:58.416Z,90
2017-12-31T11:51:08.423Z,95
2017-12-31T11:52:17.852Z,115
2017-12-31T11:53:27.826Z,115
2017-12-31T11:54:37.792Z,110
2017-12-31T11:55:47.751Z,115
2017-12-31T11:56:57.724Z,125
2017-12-31T11:58:07.695Z,120
2017-12-31T11:59:17.651Z,135
2017-12-31T12:00:27.351Z,105
2017-12-31T12:01:37.043Z,115
2017-12-31T12:02:47.005Z,115
2017-12-31T12:03:56.724Z,115
2017-12-31T12:05:06.437Z,115
2017-12-31T12:06:16.387Z,115
2017-12-31T12:07:26.083Z,120
2017-12-31T12:08:36.049Z,140
2017-12-31T12:09:46.008Z,150
2017-12-31T12:10:56.038Z,170
2017-12-31T12:12:06.036Z,205
2017-12-31T12:13:15.742Z,225
2017-12-31T12:14:25.458Z,255
2017-12-31T12:15:35.517Z,240
2017-12-31T12:16:45.473Z,215
2017-12-31T12:17:55.446Z,210
2017-12-31T12:19:05.159Z,230
2017-12-31T12:20:14.859Z,255
2017-12-31T12:21:24.813Z,280
2017-12-31T12:22:34.794Z,320
2017-12-31T12:23:44.768Z,345
2017-12-31T12:24:54.482Z,350
2017-12-31T12:26:04.224Z,350
2017-12-31T12:27:13.938Z,325
2017-12-31T12:28:23.371Z,295
2017-12-31T12:29:33.072Z,280
2017-12-31T12:30:43.030Z,250
2017-12-31T12:31:52.720Z,235
2017-12-31T12:33:02.670Z,255
2017-12-31T12:34:12.645Z,265
2017-12-31T12:35:22.605Z,280
2017-12-31T12:36:32.560Z,285
2017-12-31T12:37:42.012Z,285
2017-12-31T12:38:51.728Z,280
2017-12-31T12:40:01.691Z,255
2017-12-31T12:41:11.644Z,250
2017-12-31T12:42:21.619Z,240
2017-12-31T12:43:31.577Z,235
2017-12-31T12:44:41.536Z,230
2017-12-31T12:45:51.224Z,215
2017-12-31T12:47:00.938Z,175
2017-12-31T12:48:10.961Z,150
2017-12-31T12:49:20.945Z,140
2017-12-31T12:50:30.897Z,125
2017-12-31T12:51:40.927Z,120
2017-12-31T12:52:50.884Z,120
2017-12-31T12:54:00.838Z,120
2017-12-31T12:55:10.546Z,120
2017-12-31T12:56:20.496Z,115
2017-12-31T12:57:30.468Z,115
2017-12-31T12:58:40.451Z,120
2017-12-31T12:59:50.414Z,115
2017-12-31T13:01:00.113Z,105
2017-12-31T13:02:10.082Z,100
2017-12-31T13:03:20.037Z,90
2017-12-31T13:04:29.470Z,90
2017-12-31T13:05:38.905Z,90
2017-12-31T13:06:48.852Z,90
2017-12-31T13:07:58.566Z,95
2017-12-31T13:09:08.540Z,105
2017-12-31T13:10:18.499Z,115
2017-12-31T13:11:28.451Z,130
2017-12-31T13:12:38.412Z,145
2017-12-31T13:13:48.420Z,150
2017-12-31T13:14:58.380Z,160
2017-12-31T13:16:07.812Z,185
2017-12-31T13:17:17.895Z,200
2017-12-31T13:18:27.864Z,210
2017-12-31T13:19:37.571Z,225
2017-12-31T13:20:47.531Z,210
2017-12-31T13:21:57.217Z,190
2017-12-31T13:23:06.916Z,165
2017-12-31T13:24:16.940Z,150
2017-12-31T13:25:26.902Z,140
2017-12-31T13:26:36.867Z,130
2017-12-31T13:27:46.834Z,130
2017-12-31T13:28:56.531Z,140
2017-12-31T13:30:06.558Z,155
2017-12-31T13:31:16.513Z,170
2017-12-31T13:32:26.480Z,235
2017-12-31T13:33:36.493Z,195
2017-12-31T13:34:46.215Z,200
2017-12-31T13:35:56.200Z,190
2017-12-31T13:37:06.182Z,185
2017-12-31T13:38:16.147Z,185
2017-12-31T13:39:26.102Z,185
2017-12-31T13:40:35.792Z,195
2017-12-31T13:41:45.510Z,195
2017-12-31T13:42:55.453Z,190
2017-12-31T13:44:05.167Z,185
2017-12-31T13:45:15.150Z,185
2017-12-31T13:46:25.108Z,180
2017-12-31T13:47:35.080Z,170
2017-12-31T13:48:44.785Z,165
2017-12-31T13:49:54.487Z,155
2017-12-31T13:51:04.443Z,140
2017-12-31T13:52:14.149Z,130
2017-12-31T13:53:23.837Z,130
2017-12-31T13:54:33.536Z,130
2017-12-31T13:55:43.502Z,130
2017-12-31T13:56:53.498Z,120
2017-12-31T13:58:03.197Z,110
2017-12-31T13:59:13.147Z,100
2017-12-31T14:00:22.841Z,95
2017-12-31T14:01:32.537Z,100
2017-12-31T14:02:41.963Z,90
2017-12-31T14:03:51.660Z,85
2017-12-31T14:05:01.697Z,80
2017-12-31T14:06:11.652Z,75
2017-12-31T14:07:21.624Z,75
2017-12-31T14:08:31.586Z,75
2017-12-31T14:09:41.547Z,75
2017-12-31T14:10:51.760Z,75
2017-12-31T14:12:01.462Z,70
2017-12-31T14:13:11.429Z,65
2017-12-31T14:14:20.869Z,60
2017-12-31T14:15:30.828Z,55
2017-12-31T14:16:40.773Z,55
2017-12-31T14:17:50.482Z,55
2017-12-31T14:19:00.429Z,50
2017-12-31T14:20:10.292Z,50
2017-12-31T14:21:20.246Z,45
2017-12-31T14:22:30.266Z,45
2017-12-31T14:23:40.224Z,45
2017-12-31T14:24:50.195Z,45
2017-12-31T14:26:00.148Z,45
2017-12-31T14:27:10.113Z,45
2017-12-31T14:28:20.066Z,45
2017-12-31T14:29:30.031Z,50
2017-12-31T14:30:40.007Z,50
2017-12-31T14:31:50.035Z,50
2017-12-31T14:32:59.737Z,50
2017-12-31T14:34:09.693Z,50
2017-12-31T14:35:19.418Z,45
2017-12-31T14:36:29.116Z,45
2017-12-31T14:37:39.067Z,40
2017-12-31T14:38:48.817Z,40
2017-12-31T14:39:58.603Z,40
2017-12-31T14:41:08.290Z,40
2017-12-31T14:42:18.000Z,35
2017-12-31T14:43:27.967Z,35
2017-12-31T14:44:37.940Z,30
2017-12-31T14:45:47.903Z,30
2017-12-31T14:46:57.602Z,25
2017-12-31T14:48:07.295Z,25
2017-12-31T14:49:17.317Z,20
2017-12-31T14:50:27.266Z,20
2017-12-31T14:51:37.225Z,15
2017-12-31T14:52:47.195Z,15
2017-12-31T14:53:56.630Z,10
2017-12-31T14:55:06.371Z,10
2017-12-31T14:56:16.083Z,10
2017-12-31T14:57:25.834Z,10
2017-12-31T14:58:35.557Z,10
2017-12-31T14:59:45.267Z,10
2017-12-31T15:00:55.263Z,10
2017-12-31T15:02:05.223Z,10
2017-12-31T15:03:15.205Z,10
2017-12-31T15:04:24.919Z,5
2017-12-31T15:05:34.633Z,5
2017-12-31T15:06:44.627Z,5
2017-12-31T15:07:54.282Z,5
2017-12-31T15:09:04.013Z,5
2017-12-31T15:10:13.983Z,0
2017-12-31T15:11:23.958Z,0
2017-12-31T15:12:33.913Z,0
2017-12-31T15:13:43.877Z,0
2017-12-31T15:14:53.822Z,0
2017-12-31T15:16:03.515Z,0
2017-12-31T15:17:13.466Z,0
2017-12-31T15:18:23.434Z,0
2017-12-31T15:19:32.883Z,0
2017-12-31T15:20:42.841Z,0
2017-12-31T15:21:52.795Z,0
2017-12-31T15:23:02.803Z,0
2017-12-31T15:24:12.758Z,0
2017-12-31T15:25:22.459Z,0
2017-12-31T15:26:32.427Z,0
2017-12-31T15:27:42.396Z,0
2017-12-31T15:28:51.842Z,0
2017-12-31T15:30:01.543Z,0
2017-12-31T15:31:11.500Z,0
2017-12-31T15:32:21.200Z,0
2017-12-31T15:33:30.911Z,0
2017-12-31T15:34:40.870Z,0
2017-12-31T15:35:50.811Z,0
2017-12-31T15:37:00.516Z,0
2017-12-31T15:38:10.476Z,0
2017-12-31T15:39:20.164Z,0
2017-12-31T15:40:29.611Z,0
2017-12-31T15:41:39.558Z,0
2017-12-31T15:42:49.524Z,0
2017-12-31T15:43:59.270Z,0
2017-12-31T15:45:09.248Z,0
2017-12-31T15:46:19.208Z,0
2017-12-31T15:47:29.149Z,0
2017-12-31T15:48:38.849Z,0
2017-12-31T15:49:48.544Z,0
2017-12-31T15:50:58.534Z,0
2017-12-31T15:52:08.236Z,0
2017-12-31T15:53:17.941Z,0
2017-12-31T15:54:27.902Z,0
2017-12-31T15:55:37.876Z,0
2017-12-31T15:56:47.821Z,0
2017-12-31T15:57:57.792Z,0
2017-12-31T15:59:07.754Z,0
2017-12-31T16:00:17.726Z,0
2017-12-31T16:01:27.434Z,0
2017-12-31T16:02:37.150Z,0
2017-12-31T16:03:47.119Z,0
2017-12-31T16:04:57.078Z,0
2017-12-31T16:06:07.040Z,0
2017-12-31T16:07:17.005Z,0
2017-12-31T16:08:26.695Z,0
2017-12-31T16:09:36.394Z,0
2017-12-31T16:10:46.344Z,0
2017-12-31T16:11:56.314Z,0
2017-12-31T16:13:06.286Z,0
2017-12-31T16:14:16.246Z,0
2017-12-31T16:15:25.940Z,0
2017-12-31T16:16:35.644Z,0
2017-12-31T16:17:45.624Z,0
2017-12-31T16:18:55.579Z,0
2017-12-31T16:20:05.538Z,0
2017-12-31T16:21:15.497Z,0
2017-12-31T16:22:25.449Z,0
2017-12-31T16:23:35.411Z,0
2017-12-31T16:24:45.370Z,0
2017-12-31T16:25:55.338Z,0
2017-12-31T16:27:05.296Z,0
2017-12-31T16:28:14.988Z,0
2017-12-31T16:29:24.685Z,0
2017-12-31T16:30:34.634Z,0
2017-12-31T16:31:44.693Z,0
2017-12-31T16:32:54.407Z,0
2017-12-31T16:34:04.410Z,0
2017-12-31T16:35:14.369Z,0
2017-12-31T16:36:24.339Z,0
2017-12-31T16:37:34.303Z,0
2017-12-31T16:38:44.268Z,0
2017-12-31T16:39:54.217Z,0
2017-12-31T16:41:04.205Z,0
2017-12-31T16:42:13.911Z,0
2017-12-31T16:43:23.614Z,0
2017-12-31T16:44:33.580Z,0
2017-12-31T16:45:43.283Z,0
2017-12-31T16:46:53.267Z,0
2017-12-31T16:48:02.957Z,0